Kirtley, Texas
Current Conditions -  °F | °C
As of 1:35 PM on Thursday 27 Nov 2014 (Local Time) from KGYB Reporting Station
Clear Clear  
Wind Chill: 63°   Ceiling: Unl
Heat Index: 63°   Visibility: 10mi
Dew Point: 25°   Wind: 7mph
Humidity: 24%   Direction: 100°E
Pressure: 30.48"   Gusts: NA
Location:  30.0743°N, 97.1141°W
Report Text: KGYB 271935Z AUTO 10006KT 10SM CLR 17/M04 A3048 RMK AO2 T01701037
Loading
Personal Weather Stations






























Interactive Weather Map New forecast layout! Learn more

10-Day Weather Forecast

Advertisements
Track Severe Weather on mobile